sensor_id;sensor_type;location;lat;lon;timestamp;temperature;humidity
26408;DHT22;14583;43.604;1.364;2023-04-07T00:00:20;11.30;86.10
26408;DHT22;14583;43.604;1.364;2023-04-07T00:02:45;11.40;86.00
26408;DHT22;14583;43.604;1.364;2023-04-07T00:05:11;11.20;86.30
26408;DHT22;14583;43.604;1.364;2023-04-07T00:07:37;11.10;86.70
26408;DHT22;14583;43.604;1.364;2023-04-07T00:10:03;11.10;87.10
26408;DHT22;14583;43.604;1.364;2023-04-07T00:12:28;11.20;87.10
26408;DHT22;14583;43.604;1.364;2023-04-07T00:14:55;11.10;87.40
26408;DHT22;14583;43.604;1.364;2023-04-07T00:17:20;11.10;87.50
26408;DHT22;14583;43.604;1.364;2023-04-07T00:19:46;11.00;88.10
26408;DHT22;14583;43.604;1.364;2023-04-07T00:22:12;11.10;87.90
26408;DHT22;14583;43.604;1.364;2023-04-07T00:24:37;11.10;87.70
26408;DHT22;14583;43.604;1.364;2023-04-07T00:27:03;11.00;87.70
26408;DHT22;14583;43.604;1.364;2023-04-07T00:29:28;11.00;88.20
26408;DHT22;14583;43.604;1.364;2023-04-07T00:31:54;10.90;88.20
26408;DHT22;14583;43.604;1.364;2023-04-07T00:34:20;10.90;88.80
26408;DHT22;14583;43.604;1.364;2023-04-07T00:36:46;10.80;88.90
26408;DHT22;14583;43.604;1.364;2023-04-07T00:39:19;10.70;89.40
26408;DHT22;14583;43.604;1.364;2023-04-07T00:41:46;10.60;89.90
26408;DHT22;14583;43.604;1.364;2023-04-07T00:44:12;10.70;89.60
26408;DHT22;14583;43.604;1.364;2023-04-07T00:46:38;10.70;89.80
26408;DHT22;14583;43.604;1.364;2023-04-07T00:49:04;10.60;90.00
26408;DHT22;14583;43.604;1.364;2023-04-07T00:51:30;10.80;90.00
26408;DHT22;14583;43.604;1.364;2023-04-07T00:53:56;10.80;89.60
26408;DHT22;14583;43.604;1.364;2023-04-07T00:56:22;10.70;89.60
26408;DHT22;14583;43.604;1.364;2023-04-07T00:58:48;10.60;90.00
26408;DHT22;14583;43.604;1.364;2023-04-07T01:04:13;10.40;90.40
26408;DHT22;14583;43.604;1.364;2023-04-07T01:06:46;10.50;90.50
26408;DHT22;14583;43.604;1.364;2023-04-07T01:09:15;10.50;90.90
26408;DHT22;14583;43.604;1.364;2023-04-07T01:12:04;10.40;90.60
26408;DHT22;14583;43.604;1.364;2023-04-07T01:14:37;10.30;90.80
26408;DHT22;14583;43.604;1.364;2023-04-07T01:17:05;10.30;90.90
26408;DHT22;14583;43.604;1.364;2023-04-07T01:20:07;10.30;91.10
26408;DHT22;14583;43.604;1.364;2023-04-07T01:22:42;10.20;91.40
26408;DHT22;14583;43.604;1.364;2023-04-07T01:25:37;10.20;91.30
26408;DHT22;14583;43.604;1.364;2023-04-07T01:30:55;10.40;91.00
26408;DHT22;14583;43.604;1.364;2023-04-07T01:33:23;10.30;91.30
26408;DHT22;14583;43.604;1.364;2023-04-07T01:35:50;10.30;91.40
26408;DHT22;14583;43.604;1.364;2023-04-07T01:38:17;10.10;91.60
26408;DHT22;14583;43.604;1.364;2023-04-07T01:40:44;10.10;91.50
26408;DHT22;14583;43.604;1.364;2023-04-07T01:43:11;10.20;91.60
26408;DHT22;14583;43.604;1.364;2023-04-07T01:45:38;10.10;91.60
26408;DHT22;14583;43.604;1.364;2023-04-07T01:48:05;10.00;91.70
26408;DHT22;14583;43.604;1.364;2023-04-07T01:50:32;10.00;92.10
26408;DHT22;14583;43.604;1.364;2023-04-07T01:52:59;10.00;91.80
26408;DHT22;14583;43.604;1.364;2023-04-07T01:55:25;10.00;91.80
26408;DHT22;14583;43.604;1.364;2023-04-07T01:57:53;9.80;92.10
26408;DHT22;14583;43.604;1.364;2023-04-07T02:00:18;9.80;92.10
26408;DHT22;14583;43.604;1.364;2023-04-07T02:02:46;9.80;92.20
26408;DHT22;14583;43.604;1.364;2023-04-07T02:05:18;9.80;92.30
26408;DHT22;14583;43.604;1.364;2023-04-07T02:07:45;9.80;92.40
26408;DHT22;14583;43.604;1.364;2023-04-07T02:10:15;9.80;92.40
26408;DHT22;14583;43.604;1.364;2023-04-07T02:12:41;9.80;92.50
26408;DHT22;14583;43.604;1.364;2023-04-07T02:15:09;9.90;92.40
26408;DHT22;14583;43.604;1.364;2023-04-07T02:17:39;9.80;92.50
26408;DHT22;14583;43.604;1.364;2023-04-07T02:20:07;9.90;92.50
26408;DHT22;14583;43.604;1.364;2023-04-07T02:22:35;10.00;92.40
26408;DHT22;14583;43.604;1.364;2023-04-07T02:25:02;9.80;92.40
26408;DHT22;14583;43.604;1.364;2023-04-07T02:27:27;9.80;92.70
26408;DHT22;14583;43.604;1.364;2023-04-07T02:29:53;9.80;92.60
26408;DHT22;14583;43.604;1.364;2023-04-07T02:32:19;9.60;92.80
26408;DHT22;14583;43.604;1.364;2023-04-07T02:34:45;9.50;93.10
26408;DHT22;14583;43.604;1.364;2023-04-07T02:37:11;9.60;93.00
26408;DHT22;14583;43.604;1.364;2023-04-07T02:39:36;9.60;93.10
26408;DHT22;14583;43.604;1.364;2023-04-07T02:42:03;9.60;93.00
26408;DHT22;14583;43.604;1.364;2023-04-07T02:44:29;9.40;93.30
26408;DHT22;14583;43.604;1.364;2023-04-07T02:46:54;9.40;93.30
26408;DHT22;14583;43.604;1.364;2023-04-07T02:49:20;9.50;93.30
26408;DHT22;14583;43.604;1.364;2023-04-07T02:51:46;9.60;93.20
26408;DHT22;14583;43.604;1.364;2023-04-07T02:54:12;9.50;93.20
26408;DHT22;14583;43.604;1.364;2023-04-07T02:56:37;9.40;93.40
26408;DHT22;14583;43.604;1.364;2023-04-07T02:59:03;9.10;94.00
26408;DHT22;14583;43.604;1.364;2023-04-07T03:01:28;9.30;93.80
26408;DHT22;14583;43.604;1.364;2023-04-07T03:03:54;9.10;93.80
26408;DHT22;14583;43.604;1.364;2023-04-07T03:06:20;9.20;93.80
26408;DHT22;14583;43.604;1.364;2023-04-07T03:08:45;9.10;93.80
26408;DHT22;14583;43.604;1.364;2023-04-07T03:11:11;9.20;93.90
26408;DHT22;14583;43.604;1.364;2023-04-07T03:13:37;9.20;93.80
26408;DHT22;14583;43.604;1.364;2023-04-07T03:16:02;9.10;93.90
26408;DHT22;14583;43.604;1.364;2023-04-07T03:18:28;9.00;94.10
26408;DHT22;14583;43.604;1.364;2023-04-07T03:20:54;9.10;94.10
26408;DHT22;14583;43.604;1.364;2023-04-07T03:23:20;9.00;94.30
26408;DHT22;14583;43.604;1.364;2023-04-07T03:25:48;8.80;94.70
26408;DHT22;14583;43.604;1.364;2023-04-07T03:28:14;8.90;94.70
26408;DHT22;14583;43.604;1.364;2023-04-07T03:30:39;9.00;94.50
26408;DHT22;14583;43.604;1.364;2023-04-07T03:33:05;9.10;94.30
26408;DHT22;14583;43.604;1.364;2023-04-07T03:35:31;9.00;94.30
26408;DHT22;14583;43.604;1.364;2023-04-07T03:37:56;9.00;94.50
26408;DHT22;14583;43.604;1.364;2023-04-07T03:40:22;9.00;94.50
26408;DHT22;14583;43.604;1.364;2023-04-07T03:42:48;8.80;94.80
26408;DHT22;14583;43.604;1.364;2023-04-07T03:45:13;9.00;94.70
26408;DHT22;14583;43.604;1.364;2023-04-07T03:47:40;8.90;94.50
26408;DHT22;14583;43.604;1.364;2023-04-07T03:50:06;8.70;94.70
26408;DHT22;14583;43.604;1.364;2023-04-07T03:52:31;8.70;94.90
26408;DHT22;14583;43.604;1.364;2023-04-07T03:54:57;8.80;94.90
26408;DHT22;14583;43.604;1.364;2023-04-07T03:57:23;8.90;94.80
26408;DHT22;14583;43.604;1.364;2023-04-07T03:59:48;8.80;94.70
26408;DHT22;14583;43.604;1.364;2023-04-07T04:02:16;8.80;94.70
26408;DHT22;14583;43.604;1.364;2023-04-07T04:04:41;8.80;94.70
26408;DHT22;14583;43.604;1.364;2023-04-07T04:07:07;8.70;94.90
26408;DHT22;14583;43.604;1.364;2023-04-07T04:09:33;8.70;95.10
26408;DHT22;14583;43.604;1.364;2023-04-07T04:11:58;8.60;94.90
26408;DHT22;14583;43.604;1.364;2023-04-07T04:14:24;8.60;95.10
26408;DHT22;14583;43.604;1.364;2023-04-07T04:16:50;8.60;94.90
26408;DHT22;14583;43.604;1.364;2023-04-07T04:19:16;8.70;94.80
26408;DHT22;14583;43.604;1.364;2023-04-07T04:21:41;8.70;94.90
26408;DHT22;14583;43.604;1.364;2023-04-07T04:24:07;8.60;95.00
26408;DHT22;14583;43.604;1.364;2023-04-07T04:26:32;8.50;95.20
26408;DHT22;14583;43.604;1.364;2023-04-07T04:28:58;8.50;95.20
26408;DHT22;14583;43.604;1.364;2023-04-07T04:31:24;8.40;95.30
26408;DHT22;14583;43.604;1.364;2023-04-07T04:33:49;8.50;95.30
26408;DHT22;14583;43.604;1.364;2023-04-07T04:36:15;8.40;95.20
26408;DHT22;14583;43.604;1.364;2023-04-07T04:38:41;8.30;95.30
26408;DHT22;14583;43.604;1.364;2023-04-07T04:41:06;8.30;95.50
26408;DHT22;14583;43.604;1.364;2023-04-07T04:43:32;8.20;95.50
26408;DHT22;14583;43.604;1.364;2023-04-07T04:45:58;8.20;95.90
26408;DHT22;14583;43.604;1.364;2023-04-07T04:48:23;8.10;95.70
26408;DHT22;14583;43.604;1.364;2023-04-07T04:50:49;8.30;95.70
26408;DHT22;14583;43.604;1.364;2023-04-07T04:53:15;8.20;95.80
26408;DHT22;14583;43.604;1.364;2023-04-07T04:55:40;8.20;95.70
26408;DHT22;14583;43.604;1.364;2023-04-07T04:58:11;8.30;95.80
26408;DHT22;14583;43.604;1.364;2023-04-07T05:00:36;8.20;95.80
26408;DHT22;14583;43.604;1.364;2023-04-07T05:03:02;8.30;95.70
26408;DHT22;14583;43.604;1.364;2023-04-07T05:05:28;8.20;95.70
26408;DHT22;14583;43.604;1.364;2023-04-07T05:07:54;8.30;95.60
26408;DHT22;14583;43.604;1.364;2023-04-07T05:10:19;8.20;95.50
26408;DHT22;14583;43.604;1.364;2023-04-07T05:12:45;8.20;95.60
26408;DHT22;14583;43.604;1.364;2023-04-07T05:15:11;8.00;95.90
26408;DHT22;14583;43.604;1.364;2023-04-07T05:17:36;8.00;96.10
26408;DHT22;14583;43.604;1.364;2023-04-07T05:20:03;8.00;96.20
26408;DHT22;14583;43.604;1.364;2023-04-07T05:22:29;8.00;96.00
26408;DHT22;14583;43.604;1.364;2023-04-07T05:24:55;8.10;96.10
26408;DHT22;14583;43.604;1.364;2023-04-07T05:27:20;8.20;95.90
26408;DHT22;14583;43.604;1.364;2023-04-07T05:29:46;8.00;96.00
26408;DHT22;14583;43.604;1.364;2023-04-07T05:32:11;8.00;96.20
26408;DHT22;14583;43.604;1.364;2023-04-07T05:34:37;8.00;96.10
26408;DHT22;14583;43.604;1.364;2023-04-07T05:37:03;8.10;96.00
26408;DHT22;14583;43.604;1.364;2023-04-07T05:39:28;8.10;95.90
26408;DHT22;14583;43.604;1.364;2023-04-07T05:41:54;8.00;96.00
26408;DHT22;14583;43.604;1.364;2023-04-07T05:44:21;8.00;96.20
26408;DHT22;14583;43.604;1.364;2023-04-07T05:46:47;7.90;96.10
26408;DHT22;14583;43.604;1.364;2023-04-07T05:49:13;8.00;96.30
26408;DHT22;14583;43.604;1.364;2023-04-07T05:51:38;8.00;96.10
26408;DHT22;14583;43.604;1.364;2023-04-07T05:54:04;8.00;96.20
26408;DHT22;14583;43.604;1.364;2023-04-07T05:56:31;7.90;96.40
26408;DHT22;14583;43.604;1.364;2023-04-07T05:58:56;7.90;96.40
26408;DHT22;14583;43.604;1.364;2023-04-07T06:01:24;8.10;96.20
26408;DHT22;14583;43.604;1.364;2023-04-07T06:03:50;8.00;96.30
26408;DHT22;14583;43.604;1.364;2023-04-07T06:06:15;8.10;96.30
26408;DHT22;14583;43.604;1.364;2023-04-07T06:08:41;8.10;96.40
26408;DHT22;14583;43.604;1.364;2023-04-07T06:11:06;8.20;96.20
26408;DHT22;14583;43.604;1.364;2023-04-07T06:13:32;8.30;96.20
26408;DHT22;14583;43.604;1.364;2023-04-07T06:15:58;8.20;96.10
26408;DHT22;14583;43.604;1.364;2023-04-07T06:18:24;8.20;96.20
26408;DHT22;14583;43.604;1.364;2023-04-07T06:20:49;8.10;96.20
26408;DHT22;14583;43.604;1.364;2023-04-07T06:23:15;8.00;96.50
26408;DHT22;14583;43.604;1.364;2023-04-07T06:25:40;8.10;96.50
26408;DHT22;14583;43.604;1.364;2023-04-07T06:28:06;8.30;96.30
26408;DHT22;14583;43.604;1.364;2023-04-07T06:30:33;8.30;96.20
26408;DHT22;14583;43.604;1.364;2023-04-07T06:32:58;8.20;96.20
26408;DHT22;14583;43.604;1.364;2023-04-07T06:35:25;8.30;96.10
26408;DHT22;14583;43.604;1.364;2023-04-07T06:37:52;8.50;96.00
26408;DHT22;14583;43.604;1.364;2023-04-07T06:40:17;8.40;96.10
26408;DHT22;14583;43.604;1.364;2023-04-07T06:42:43;8.50;96.10
26408;DHT22;14583;43.604;1.364;2023-04-07T06:45:10;8.40;96.20
26408;DHT22;14583;43.604;1.364;2023-04-07T06:47:35;8.60;96.10
26408;DHT22;14583;43.604;1.364;2023-04-07T06:50:02;8.60;96.00
26408;DHT22;14583;43.604;1.364;2023-04-07T06:52:28;8.60;95.90
26408;DHT22;14583;43.604;1.364;2023-04-07T06:54:54;8.70;96.10
26408;DHT22;14583;43.604;1.364;2023-04-07T06:57:19;8.80;95.80
26408;DHT22;14583;43.604;1.364;2023-04-07T06:59:45;9.00;95.60
26408;DHT22;14583;43.604;1.364;2023-04-07T07:02:11;8.90;95.80
26408;DHT22;14583;43.604;1.364;2023-04-07T07:04:37;9.00;95.70
26408;DHT22;14583;43.604;1.364;2023-04-07T07:07:03;9.00;95.60
26408;DHT22;14583;43.604;1.364;2023-04-07T07:09:28;9.10;95.40
26408;DHT22;14583;43.604;1.364;2023-04-07T07:11:54;9.10;95.70
26408;DHT22;14583;43.604;1.364;2023-04-07T07:14:20;9.20;95.60
26408;DHT22;14583;43.604;1.364;2023-04-07T07:16:46;9.40;95.40
26408;DHT22;14583;43.604;1.364;2023-04-07T07:19:11;9.40;95.10
26408;DHT22;14583;43.604;1.364;2023-04-07T07:21:38;9.40;95.20
26408;DHT22;14583;43.604;1.364;2023-04-07T07:24:04;9.50;95.10
26408;DHT22;14583;43.604;1.364;2023-04-07T07:26:30;9.60;94.90
26408;DHT22;14583;43.604;1.364;2023-04-07T07:28:56;9.70;94.90
26408;DHT22;14583;43.604;1.364;2023-04-07T07:31:21;9.70;95.00
26408;DHT22;14583;43.604;1.364;2023-04-07T07:33:48;9.70;95.10
26408;DHT22;14583;43.604;1.364;2023-04-07T07:36:16;9.80;95.10
26408;DHT22;14583;43.604;1.364;2023-04-07T07:38:41;9.90;95.10
26408;DHT22;14583;43.604;1.364;2023-04-07T07:41:07;9.90;95.00
26408;DHT22;14583;43.604;1.364;2023-04-07T07:43:33;10.00;94.80
26408;DHT22;14583;43.604;1.364;2023-04-07T07:45:59;10.10;94.60
26408;DHT22;14583;43.604;1.364;2023-04-07T07:48:25;10.10;95.10
26408;DHT22;14583;43.604;1.364;2023-04-07T07:50:50;10.10;94.70
26408;DHT22;14583;43.604;1.364;2023-04-07T07:53:17;10.10;95.00
26408;DHT22;14583;43.604;1.364;2023-04-07T07:55:44;10.20;94.80
26408;DHT22;14583;43.604;1.364;2023-04-07T07:58:09;10.30;95.30
26408;DHT22;14583;43.604;1.364;2023-04-07T08:00:35;10.30;95.00
26408;DHT22;14583;43.604;1.364;2023-04-07T08:03:01;10.40;94.80
26408;DHT22;14583;43.604;1.364;2023-04-07T08:05:26;10.50;94.70
26408;DHT22;14583;43.604;1.364;2023-04-07T08:07:52;10.60;94.30
26408;DHT22;14583;43.604;1.364;2023-04-07T08:10:19;10.70;93.90
26408;DHT22;14583;43.604;1.364;2023-04-07T08:12:46;10.80;94.00
26408;DHT22;14583;43.604;1.364;2023-04-07T08:15:11;10.80;93.80
26408;DHT22;14583;43.604;1.364;2023-04-07T08:17:37;10.90;93.50
26408;DHT22;14583;43.604;1.364;2023-04-07T08:20:04;11.00;93.50
26408;DHT22;14583;43.604;1.364;2023-04-07T08:22:30;11.10;93.60
26408;DHT22;14583;43.604;1.364;2023-04-07T08:24:55;11.20;93.50
26408;DHT22;14583;43.604;1.364;2023-04-07T08:27:21;11.20;93.80
26408;DHT22;14583;43.604;1.364;2023-04-07T08:30:01;11.30;94.10
26408;DHT22;14583;43.604;1.364;2023-04-07T08:32:37;11.30;93.50
26408;DHT22;14583;43.604;1.364;2023-04-07T08:35:03;11.40;93.50
26408;DHT22;14583;43.604;1.364;2023-04-07T08:37:30;11.40;93.70
26408;DHT22;14583;43.604;1.364;2023-04-07T08:39:56;11.30;93.90
26408;DHT22;14583;43.604;1.364;2023-04-07T08:42:26;11.40;93.90
26408;DHT22;14583;43.604;1.364;2023-04-07T08:44:53;11.50;93.80
26408;DHT22;14583;43.604;1.364;2023-04-07T08:47:21;11.50;93.70
26408;DHT22;14583;43.604;1.364;2023-04-07T08:49:51;11.60;93.70
26408;DHT22;14583;43.604;1.364;2023-04-07T08:52:21;11.70;93.40
26408;DHT22;14583;43.604;1.364;2023-04-07T08:54:48;11.70;93.30
26408;DHT22;14583;43.604;1.364;2023-04-07T08:57:14;11.80;93.60
26408;DHT22;14583;43.604;1.364;2023-04-07T08:59:41;11.80;94.20
26408;DHT22;14583;43.604;1.364;2023-04-07T09:02:09;11.90;93.70
26408;DHT22;14583;43.604;1.364;2023-04-07T09:04:35;12.00;93.50
26408;DHT22;14583;43.604;1.364;2023-04-07T09:07:01;12.10;93.40
26408;DHT22;14583;43.604;1.364;2023-04-07T09:09:28;12.10;93.00
26408;DHT22;14583;43.604;1.364;2023-04-07T09:11:54;12.20;92.60
26408;DHT22;14583;43.604;1.364;2023-04-07T09:14:20;12.10;92.50
26408;DHT22;14583;43.604;1.364;2023-04-07T09:16:46;12.20;92.50
26408;DHT22;14583;43.604;1.364;2023-04-07T09:19:12;12.20;92.70
26408;DHT22;14583;43.604;1.364;2023-04-07T09:21:47;12.30;92.50
26408;DHT22;14583;43.604;1.364;2023-04-07T09:24:28;12.30;92.40
26408;DHT22;14583;43.604;1.364;2023-04-07T09:29:39;12.40;92.60
26408;DHT22;14583;43.604;1.364;2023-04-07T09:32:05;12.50;92.60
26408;DHT22;14583;43.604;1.364;2023-04-07T09:34:33;12.60;92.60
26408;DHT22;14583;43.604;1.364;2023-04-07T09:36:59;12.60;93.00
26408;DHT22;14583;43.604;1.364;2023-04-07T09:39:26;12.70;92.80
26408;DHT22;14583;43.604;1.364;2023-04-07T09:41:52;12.80;92.70
26408;DHT22;14583;43.604;1.364;2023-04-07T09:44:18;12.80;92.60
26408;DHT22;14583;43.604;1.364;2023-04-07T09:46:52;12.80;92.60
26408;DHT22;14583;43.604;1.364;2023-04-07T09:49:19;12.90;92.90
26408;DHT22;14583;43.604;1.364;2023-04-07T09:52:02;13.00;92.70
26408;DHT22;14583;43.604;1.364;2023-04-07T09:54:40;13.00;92.30
26408;DHT22;14583;43.604;1.364;2023-04-07T09:57:10;13.00;92.10
26408;DHT22;14583;43.604;1.364;2023-04-07T09:59:38;13.20;92.50
26408;DHT22;14583;43.604;1.364;2023-04-07T10:02:07;13.30;91.90
26408;DHT22;14583;43.604;1.364;2023-04-07T10:04:33;13.40;92.20
26408;DHT22;14583;43.604;1.364;2023-04-07T10:06:59;13.40;92.10
26408;DHT22;14583;43.604;1.364;2023-04-07T10:09:29;13.70;92.20
26408;DHT22;14583;43.604;1.364;2023-04-07T10:11:56;13.70;91.30
26408;DHT22;14583;43.604;1.364;2023-04-07T10:14:31;13.70;91.40
26408;DHT22;14583;43.604;1.364;2023-04-07T10:16:59;13.80;91.40
26408;DHT22;14583;43.604;1.364;2023-04-07T10:19:29;13.80;91.20
26408;DHT22;14583;43.604;1.364;2023-04-07T10:21:56;14.00;91.20
26408;DHT22;14583;43.604;1.364;2023-04-07T10:26:53;14.10;90.10
26408;DHT22;14583;43.604;1.364;2023-04-07T10:29:22;14.10;90.00
26408;DHT22;14583;43.604;1.364;2023-04-07T10:31:49;14.20;90.00
26408;DHT22;14583;43.604;1.364;2023-04-07T10:34:16;14.20;88.10
26408;DHT22;14583;43.604;1.364;2023-04-07T10:37:11;14.40;88.50
26408;DHT22;14583;43.604;1.364;2023-04-07T10:39:38;14.50;87.00
26408;DHT22;14583;43.604;1.364;2023-04-07T10:42:05;14.50;87.30
26408;DHT22;14583;43.604;1.364;2023-04-07T10:44:51;14.60;87.70
26408;DHT22;14583;43.604;1.364;2023-04-07T10:47:17;14.80;85.30
26408;DHT22;14583;43.604;1.364;2023-04-07T10:52:37;15.20;86.70
26408;DHT22;14583;43.604;1.364;2023-04-07T10:55:29;15.00;83.00
26408;DHT22;14583;43.604;1.364;2023-04-07T10:58:21;14.90;84.40
26408;DHT22;14583;43.604;1.364;2023-04-07T11:03:26;15.10;85.50
26408;DHT22;14583;43.604;1.364;2023-04-07T11:05:54;15.00;85.50
26408;DHT22;14583;43.604;1.364;2023-04-07T11:08:35;15.00;86.10
26408;DHT22;14583;43.604;1.364;2023-04-07T11:11:01;15.40;86.90
26408;DHT22;14583;43.604;1.364;2023-04-07T11:13:26;15.40;84.30
26408;DHT22;14583;43.604;1.364;2023-04-07T11:15:53;15.40;83.10
26408;DHT22;14583;43.604;1.364;2023-04-07T11:18:20;15.40;84.50
26408;DHT22;14583;43.604;1.364;2023-04-07T11:20:53;15.50;84.10
26408;DHT22;14583;43.604;1.364;2023-04-07T11:23:22;15.40;83.70
26408;DHT22;14583;43.604;1.364;2023-04-07T11:25:50;15.50;82.60
26408;DHT22;14583;43.604;1.364;2023-04-07T11:28:16;15.60;82.20
26408;DHT22;14583;43.604;1.364;2023-04-07T11:30:47;15.60;82.30
26408;DHT22;14583;43.604;1.364;2023-04-07T11:33:15;15.60;83.00
26408;DHT22;14583;43.604;1.364;2023-04-07T11:35:59;15.60;84.30
26408;DHT22;14583;43.604;1.364;2023-04-07T11:38:26;15.80;83.20
26408;DHT22;14583;43.604;1.364;2023-04-07T11:40:53;15.70;80.50
26408;DHT22;14583;43.604;1.364;2023-04-07T11:43:26;15.80;80.20
26408;DHT22;14583;43.604;1.364;2023-04-07T11:46:14;15.90;79.70
26408;DHT22;14583;43.604;1.364;2023-04-07T11:48:42;15.90;79.80
26408;DHT22;14583;43.604;1.364;2023-04-07T11:51:20;15.90;80.20
26408;DHT22;14583;43.604;1.364;2023-04-07T11:53:47;15.90;80.20
26408;DHT22;14583;43.604;1.364;2023-04-07T11:56:18;15.90;80.70
26408;DHT22;14583;43.604;1.364;2023-04-07T11:58:54;16.00;81.00
26408;DHT22;14583;43.604;1.364;2023-04-07T12:01:21;16.10;80.20
26408;DHT22;14583;43.604;1.364;2023-04-07T12:04:02;16.10;78.50
26408;DHT22;14583;43.604;1.364;2023-04-07T12:06:35;16.20;79.40
26408;DHT22;14583;43.604;1.364;2023-04-07T12:09:06;16.30;80.20
26408;DHT22;14583;43.604;1.364;2023-04-07T12:11:33;16.30;80.90
26408;DHT22;14583;43.604;1.364;2023-04-07T12:14:00;16.40;80.70
26408;DHT22;14583;43.604;1.364;2023-04-07T12:16:29;16.40;80.40
26408;DHT22;14583;43.604;1.364;2023-04-07T12:18:55;16.40;80.50
26408;DHT22;14583;43.604;1.364;2023-04-07T12:21:21;16.50;81.40
26408;DHT22;14583;43.604;1.364;2023-04-07T12:23:48;16.50;83.90
26408;DHT22;14583;43.604;1.364;2023-04-07T12:26:14;16.70;82.70
26408;DHT22;14583;43.604;1.364;2023-04-07T12:28:39;16.90;83.70
26408;DHT22;14583;43.604;1.364;2023-04-07T12:31:05;16.90;80.60
26408;DHT22;14583;43.604;1.364;2023-04-07T12:33:31;16.90;80.20
26408;DHT22;14583;43.604;1.364;2023-04-07T12:35:57;17.00;81.60
26408;DHT22;14583;43.604;1.364;2023-04-07T12:38:23;17.00;81.60
26408;DHT22;14583;43.604;1.364;2023-04-07T12:40:48;17.10;80.60
26408;DHT22;14583;43.604;1.364;2023-04-07T12:43:14;17.10;79.80
26408;DHT22;14583;43.604;1.364;2023-04-07T12:45:40;17.20;81.30
26408;DHT22;14583;43.604;1.364;2023-04-07T12:48:06;17.30;81.70
26408;DHT22;14583;43.604;1.364;2023-04-07T12:50:31;17.30;78.60
26408;DHT22;14583;43.604;1.364;2023-04-07T12:52:57;17.30;79.60
26408;DHT22;14583;43.604;1.364;2023-04-07T12:55:30;17.20;78.70
26408;DHT22;14583;43.604;1.364;2023-04-07T12:57:58;17.30;78.50
26408;DHT22;14583;43.604;1.364;2023-04-07T13:00:24;17.70;77.40
26408;DHT22;14583;43.604;1.364;2023-04-07T13:02:49;17.70;77.70
26408;DHT22;14583;43.604;1.364;2023-04-07T13:05:15;17.60;77.40
26408;DHT22;14583;43.604;1.364;2023-04-07T13:07:41;17.50;77.70
26408;DHT22;14583;43.604;1.364;2023-04-07T13:10:07;17.50;76.90
26408;DHT22;14583;43.604;1.364;2023-04-07T13:12:34;17.60;78.10
26408;DHT22;14583;43.604;1.364;2023-04-07T13:15:00;17.60;77.10
26408;DHT22;14583;43.604;1.364;2023-04-07T13:17:26;17.70;77.30
26408;DHT22;14583;43.604;1.364;2023-04-07T13:19:53;17.80;77.50
26408;DHT22;14583;43.604;1.364;2023-04-07T13:22:19;17.80;77.20
26408;DHT22;14583;43.604;1.364;2023-04-07T13:24:44;18.00;75.90
26408;DHT22;14583;43.604;1.364;2023-04-07T13:27:10;18.00;76.30
26408;DHT22;14583;43.604;1.364;2023-04-07T13:29:36;18.10;75.80
26408;DHT22;14583;43.604;1.364;2023-04-07T13:32:09;18.30;74.20
26408;DHT22;14583;43.604;1.364;2023-04-07T13:34:37;18.40;73.80
26408;DHT22;14583;43.604;1.364;2023-04-07T13:37:04;18.60;72.60
26408;DHT22;14583;43.604;1.364;2023-04-07T13:39:30;18.70;72.40
26408;DHT22;14583;43.604;1.364;2023-04-07T13:41:56;18.80;72.80
26408;DHT22;14583;43.604;1.364;2023-04-07T13:44:23;18.60;70.60
26408;DHT22;14583;43.604;1.364;2023-04-07T13:46:49;18.60;71.40
26408;DHT22;14583;43.604;1.364;2023-04-07T13:49:14;18.60;70.40
26408;DHT22;14583;43.604;1.364;2023-04-07T13:51:40;18.60;69.60
26408;DHT22;14583;43.604;1.364;2023-04-07T13:54:06;18.60;70.40
26408;DHT22;14583;43.604;1.364;2023-04-07T13:56:32;19.20;66.90
26408;DHT22;14583;43.604;1.364;2023-04-07T13:59:00;19.40;66.80
26408;DHT22;14583;43.604;1.364;2023-04-07T14:01:26;19.30;67.60
26408;DHT22;14583;43.604;1.364;2023-04-07T14:03:52;19.20;66.90
26408;DHT22;14583;43.604;1.364;2023-04-07T14:06:17;19.30;67.70
26408;DHT22;14583;43.604;1.364;2023-04-07T14:08:47;19.40;66.70
26408;DHT22;14583;43.604;1.364;2023-04-07T14:11:16;19.50;67.40
26408;DHT22;14583;43.604;1.364;2023-04-07T14:13:42;19.50;69.30
26408;DHT22;14583;43.604;1.364;2023-04-07T14:16:08;19.50;68.10
26408;DHT22;14583;43.604;1.364;2023-04-07T14:18:33;19.60;68.30
26408;DHT22;14583;43.604;1.364;2023-04-07T14:20:59;19.70;67.10
26408;DHT22;14583;43.604;1.364;2023-04-07T14:23:26;19.70;68.20
26408;DHT22;14583;43.604;1.364;2023-04-07T14:25:51;19.80;66.10
26408;DHT22;14583;43.604;1.364;2023-04-07T14:28:17;19.80;65.40
26408;DHT22;14583;43.604;1.364;2023-04-07T14:30:43;19.50;65.40
26408;DHT22;14583;43.604;1.364;2023-04-07T14:33:09;19.70;65.00
26408;DHT22;14583;43.604;1.364;2023-04-07T14:35:37;19.80;64.80
26408;DHT22;14583;43.604;1.364;2023-04-07T14:38:03;20.00;63.30
26408;DHT22;14583;43.604;1.364;2023-04-07T14:40:29;20.10;62.60
26408;DHT22;14583;43.604;1.364;2023-04-07T14:42:55;20.30;62.20
26408;DHT22;14583;43.604;1.364;2023-04-07T14:45:23;20.10;62.20
26408;DHT22;14583;43.604;1.364;2023-04-07T14:47:49;20.30;61.30
26408;DHT22;14583;43.604;1.364;2023-04-07T14:50:15;20.30;62.20
26408;DHT22;14583;43.604;1.364;2023-04-07T14:52:40;20.50;62.60
26408;DHT22;14583;43.604;1.364;2023-04-07T14:55:06;20.50;61.60
26408;DHT22;14583;43.604;1.364;2023-04-07T14:57:32;20.70;62.10
26408;DHT22;14583;43.604;1.364;2023-04-07T14:59:58;20.80;60.50
26408;DHT22;14583;43.604;1.364;2023-04-07T15:02:23;21.10;61.20
26408;DHT22;14583;43.604;1.364;2023-04-07T15:04:49;21.30;62.40
26408;DHT22;14583;43.604;1.364;2023-04-07T15:07:14;21.50;60.50
26408;DHT22;14583;43.604;1.364;2023-04-07T15:09:40;21.60;60.80
26408;DHT22;14583;43.604;1.364;2023-04-07T15:12:06;21.80;61.70
26408;DHT22;14583;43.604;1.364;2023-04-07T15:14:31;22.00;60.20
26408;DHT22;14583;43.604;1.364;2023-04-07T15:16:57;22.30;60.40
26408;DHT22;14583;43.604;1.364;2023-04-07T15:19:23;22.40;59.70
26408;DHT22;14583;43.604;1.364;2023-04-07T15:21:48;22.10;59.80
26408;DHT22;14583;43.604;1.364;2023-04-07T15:24:14;22.30;59.90
26408;DHT22;14583;43.604;1.364;2023-04-07T15:26:40;23.20;59.90
26408;DHT22;14583;43.604;1.364;2023-04-07T15:29:05;23.80;57.50
26408;DHT22;14583;43.604;1.364;2023-04-07T15:31:31;23.70;59.30
26408;DHT22;14583;43.604;1.364;2023-04-07T15:33:57;24.00;56.90
26408;DHT22;14583;43.604;1.364;2023-04-07T15:36:22;24.00;58.00
26408;DHT22;14583;43.604;1.364;2023-04-07T15:38:48;24.40;57.40
26408;DHT22;14583;43.604;1.364;2023-04-07T15:41:14;25.30;56.20
26408;DHT22;14583;43.604;1.364;2023-04-07T15:43:43;26.60;54.90
26408;DHT22;14583;43.604;1.364;2023-04-07T15:46:09;30.00;55.20
26408;DHT22;14583;43.604;1.364;2023-04-07T15:48:34;34.80;50.00
26408;DHT22;14583;43.604;1.364;2023-04-07T15:51:00;38.40;44.70
26408;DHT22;14583;43.604;1.364;2023-04-07T15:53:26;40.70;41.60